Weather at Skywagon Ranch Airport

Public forecast

Using degrees Fahrenheit for public forecast. Weather courtesy of forecast.io.

Closest aviation weather report (METAR) to Skywagon Ranch Airport

Closest report is Vance Brand Airport, 8.9 nm (16.5 km) S. Retrieved 2020/10/27 18:15 UTC (1 hour ago):

KLMO 271815Z AUTO 00000KT 10SM CLR 04/M08 A3012 RMK AO2 T00361083

Closest aviation forecast (TAF) to Skywagon Ranch Airport

Closest forecast is Rocky Mountain Metropolitan Airport, 24.2 nm (44.9 km) S. Retrieved 2020/10/27 18:28 UTC (1 hour ago):

TAF KBJC 271726Z 2718/2818 VRB06KT P6SM SKC FM272100 14007KT P6SM FEW200 FM280100 VRB06KT P6SM FEW200 FM280500 25007KT P6SM FEW200